createdAt,value
2023-05-05T00:04:07.579Z,-59
2023-05-05T00:09:08.842Z,-60
2023-05-05T00:14:10.020Z,-59
2023-05-05T00:19:11.283Z,-59
2023-05-05T00:24:12.513Z,-60
2023-05-05T00:29:13.764Z,-59
2023-05-05T00:34:14.995Z,-60
2023-05-05T00:39:16.229Z,-62
2023-05-05T00:44:17.419Z,-60
2023-05-05T00:49:18.661Z,-59
2023-05-05T00:54:19.944Z,-59
2023-05-05T00:59:21.227Z,-59
2023-05-05T01:04:22.442Z,-60
2023-05-05T01:09:23.998Z,-60
2023-05-05T01:14:25.224Z,-62
2023-05-05T01:19:26.430Z,-60
2023-05-05T01:24:28.094Z,-60
2023-05-05T01:29:29.301Z,-60
2023-05-05T01:34:30.909Z,-59
2023-05-05T01:39:32.123Z,-60
2023-05-05T01:44:33.732Z,-60
2023-05-05T01:49:35.573Z,-59
2023-05-05T01:54:37.843Z,-59
2023-05-05T01:59:39.103Z,-59
2023-05-05T02:04:40.310Z,-59
2023-05-05T02:09:41.583Z,-60
2023-05-05T02:14:42.760Z,-59
2023-05-05T02:19:44.041Z,-59
2023-05-05T02:24:45.235Z,-59
2023-05-05T02:29:46.832Z,-59
2023-05-05T02:34:48.029Z,-59
2023-05-05T02:39:51.629Z,-59
2023-05-05T02:44:52.880Z,-59
2023-05-05T02:49:54.088Z,-59
2023-05-05T02:54:55.267Z,-59
2023-05-05T02:59:56.538Z,-59
2023-05-05T03:04:57.772Z,-60
2023-05-05T03:09:58.991Z,-59
2023-05-05T03:15:00.262Z,-59
2023-05-05T03:20:04.354Z,-59
2023-05-05T03:25:06.161Z,-59
2023-05-05T03:30:07.588Z,-59
2023-05-05T03:35:09.193Z,-60
2023-05-05T03:40:10.510Z,-63
2023-05-05T03:45:11.778Z,-60
2023-05-05T03:50:13.045Z,-59
2023-05-05T03:55:14.303Z,-59
2023-05-05T04:00:15.591Z,-59
2023-05-05T04:05:16.836Z,-59
2023-05-05T04:10:18.115Z,-59
2023-05-05T04:15:19.282Z,-59
2023-05-05T04:20:20.507Z,-59
2023-05-05T04:25:21.701Z,-59
2023-05-05T04:30:22.916Z,-60
2023-05-05T04:35:24.176Z,-59
2023-05-05T04:40:26.242Z,-59
2023-05-05T04:45:27.474Z,-59
2023-05-05T04:50:28.718Z,-59
2023-05-05T04:55:29.979Z,-59
2023-05-05T05:00:31.210Z,-60
2023-05-05T05:05:32.371Z,-60
2023-05-05T05:10:33.626Z,-59
2023-05-05T05:15:34.898Z,-60
2023-05-05T05:20:36.230Z,-59
2023-05-05T05:25:37.461Z,-60
2023-05-05T05:30:38.694Z,-60
2023-05-05T05:35:39.982Z,-59
2023-05-05T05:40:41.258Z,-60
2023-05-05T05:45:42.459Z,-59
2023-05-05T05:50:43.778Z,-60
2023-05-05T05:55:45.038Z,-60
2023-05-05T06:00:46.695Z,-60
2023-05-05T06:05:47.922Z,-60
2023-05-05T06:10:49.285Z,-60
2023-05-05T06:15:50.624Z,-60
2023-05-05T06:20:52.273Z,-60
2023-05-05T06:25:55.283Z,-61
2023-05-05T06:30:57.038Z,-63
2023-05-05T06:35:58.250Z,-60
2023-05-05T06:40:59.484Z,-60
2023-05-05T06:46:00.796Z,-60
2023-05-05T06:51:02.978Z,-59
2023-05-05T06:56:04.253Z,-60
2023-05-05T07:01:05.846Z,-61
2023-05-05T07:06:07.107Z,-62
2023-05-05T07:11:08.271Z,-59
2023-05-05T07:16:09.501Z,-60
2023-05-05T07:21:10.699Z,-60
2023-05-05T07:26:12.031Z,-60
2023-05-05T07:31:13.379Z,-59
2023-05-05T07:36:14.553Z,-59
2023-05-05T07:41:15.929Z,-62
2023-05-05T07:46:17.151Z,-60
2023-05-05T07:51:18.370Z,-61
2023-05-05T07:56:21.701Z,-61
2023-05-05T08:01:23.190Z,-61
2023-05-05T08:06:25.252Z,-62
2023-05-05T08:11:28.998Z,-61
2023-05-05T08:16:31.045Z,-60
2023-05-05T08:21:32.319Z,-62
2023-05-05T08:26:33.600Z,-60
2023-05-05T08:31:34.835Z,-59
2023-05-05T08:36:36.143Z,-62
2023-05-05T08:41:37.382Z,-61
2023-05-05T08:46:38.637Z,-59
2023-05-05T08:51:39.942Z,-61
2023-05-05T08:56:44.916Z,-60
2023-05-05T09:01:46.177Z,-60
2023-05-05T09:06:47.352Z,-60
2023-05-05T09:11:48.577Z,-61
2023-05-05T09:16:49.875Z,-61
2023-05-05T09:21:51.242Z,-61
2023-05-05T09:26:55.985Z,-60
2023-05-05T09:31:58.765Z,-61
2023-05-05T09:36:59.939Z,-62
2023-05-05T09:42:01.253Z,-61
2023-05-05T09:47:05.250Z,-62
2023-05-05T09:52:08.483Z,-61
2023-05-05T09:57:09.652Z,-62
2023-05-05T10:02:11.748Z,-62
2023-05-05T10:07:12.951Z,-61
2023-05-05T10:12:14.115Z,-61
2023-05-05T10:17:15.445Z,-61
2023-05-05T10:22:16.747Z,-61
2023-05-05T10:27:17.995Z,-61
2023-05-05T10:32:47.144Z,-61
2023-05-05T10:37:40.618Z,-61
2023-05-05T10:42:41.849Z,-61
2023-05-05T10:47:44.330Z,-61
2023-05-05T10:52:45.776Z,-61
2023-05-05T10:57:47.122Z,-60
2023-05-05T11:02:48.314Z,-61
2023-05-05T11:07:49.929Z,-61
2023-05-05T11:12:51.181Z,-61
2023-05-05T11:17:52.556Z,-61
2023-05-05T11:22:53.806Z,-61
2023-05-05T11:27:55.008Z,-62
2023-05-05T11:32:56.267Z,-62
2023-05-05T11:37:57.517Z,-62
2023-05-05T11:42:58.697Z,-61
2023-05-05T11:47:59.938Z,-61
2023-05-05T11:53:01.155Z,-61
2023-05-05T11:58:02.372Z,-62
2023-05-05T12:03:03.635Z,-62
2023-05-05T12:08:04.985Z,-61
2023-05-05T12:13:06.217Z,-62
2023-05-05T12:18:07.676Z,-62
2023-05-05T12:23:12.247Z,-62
2023-05-05T12:28:13.518Z,-62
2023-05-05T12:33:14.699Z,-62
2023-05-05T12:38:16.182Z,-61
2023-05-05T12:43:17.368Z,-61
2023-05-05T12:48:18.563Z,-62
2023-05-05T12:53:19.748Z,-62
2023-05-05T12:58:21.592Z,-62
2023-05-05T13:03:22.846Z,-62
2023-05-05T13:08:25.315Z,-62
2023-05-05T13:13:26.957Z,-62
2023-05-05T13:18:28.252Z,-63
2023-05-05T13:23:29.486Z,-62
2023-05-05T13:28:30.886Z,-62
2023-05-05T13:33:32.116Z,-62
2023-05-05T13:38:33.431Z,-63
2023-05-05T13:43:34.658Z,-59
2023-05-05T13:48:35.855Z,-59
2023-05-05T13:53:37.202Z,-59
2023-05-05T13:58:38.380Z,-59
2023-05-05T14:03:39.825Z,-59
2023-05-05T14:08:41.530Z,-59
2023-05-05T14:13:43.432Z,-59
2023-05-05T14:18:44.611Z,-59
2023-05-05T14:23:45.924Z,-59
2023-05-05T14:28:49.066Z,-59
2023-05-05T14:33:51.273Z,-60
2023-05-05T14:38:52.592Z,-60
2023-05-05T14:43:53.949Z,-59
2023-05-05T14:48:55.174Z,-60
2023-05-05T14:59:40.496Z,-68
2023-05-05T15:04:41.734Z,-66
2023-05-05T15:09:42.998Z,-66
2023-05-05T15:14:44.260Z,-66
2023-05-05T15:19:45.655Z,-65
2023-05-05T15:24:46.881Z,-66
2023-05-05T15:29:48.787Z,-66
2023-05-05T15:34:50.455Z,-66
2023-05-05T15:39:51.875Z,-67
2023-05-05T15:44:53.094Z,-65
2023-05-05T15:49:54.309Z,-68
2023-05-05T15:54:55.545Z,-66
2023-05-05T15:59:56.835Z,-64
2023-05-05T16:04:58.150Z,-66
2023-05-05T16:09:59.403Z,-65
2023-05-05T16:15:00.728Z,-65
2023-05-05T16:20:02.113Z,-66
2023-05-05T16:25:03.387Z,-68
2023-05-05T16:30:04.632Z,-64
2023-05-05T16:35:07.467Z,-64
2023-05-05T16:40:09.060Z,-66
2023-05-05T16:45:10.517Z,-65
2023-05-05T16:50:11.872Z,-65
2023-05-05T16:55:13.259Z,-68
2023-05-05T17:00:14.619Z,-69
2023-05-05T17:05:17.620Z,-68
2023-05-05T17:10:19.104Z,-68
2023-05-05T17:15:21.198Z,-68
2023-05-05T17:20:22.689Z,-68
2023-05-05T17:25:26.100Z,-67
2023-05-05T17:30:27.727Z,-68
2023-05-05T17:35:29.685Z,-68
2023-05-05T17:40:30.871Z,-65
2023-05-05T17:45:32.154Z,-64
2023-05-05T17:50:33.381Z,-68
2023-05-05T17:55:34.517Z,-69
2023-05-05T18:00:35.708Z,-69
2023-05-05T18:05:36.990Z,-65
2023-05-05T18:10:38.223Z,-68
2023-05-05T18:15:40.219Z,-70
2023-05-05T18:20:41.488Z,-69
2023-05-05T18:25:42.864Z,-67
2023-05-05T18:30:44.103Z,-68
2023-05-05T18:35:45.831Z,-70
2023-05-05T18:40:47.099Z,-66
2023-05-05T18:45:48.369Z,-67
2023-05-05T18:50:51.274Z,-68
2023-05-05T18:55:52.594Z,-69
2023-05-05T19:00:53.842Z,-68
2023-05-05T19:05:55.198Z,-67
2023-05-05T19:10:56.367Z,-65
2023-05-05T19:15:57.891Z,-68
2023-05-05T19:20:59.214Z,-67
2023-05-05T19:26:00.620Z,-67
2023-05-05T19:31:01.914Z,-68
2023-05-05T19:36:03.226Z,-67
2023-05-05T19:41:04.450Z,-65
2023-05-05T19:46:05.751Z,-68
2023-05-05T19:51:06.924Z,-66
2023-05-05T19:56:08.297Z,-67
2023-05-05T20:01:09.468Z,-67
2023-05-05T20:06:10.794Z,-66
2023-05-05T20:11:12.012Z,-68
2023-05-05T20:16:13.309Z,-63
2023-05-05T20:21:14.584Z,-64
2023-05-05T20:26:15.841Z,-63
2023-05-05T20:31:17.108Z,-62
2023-05-05T20:36:18.486Z,-63
2023-05-05T20:41:19.760Z,-64
2023-05-05T20:46:21.064Z,-63
2023-05-05T20:51:22.353Z,-63
2023-05-05T20:56:23.534Z,-63
2023-05-05T21:01:24.738Z,-63
2023-05-05T21:06:26.054Z,-62
2023-05-05T21:11:27.235Z,-64
2023-05-05T21:16:28.505Z,-62
2023-05-05T21:21:29.750Z,-62
2023-05-05T21:26:30.940Z,-62
2023-05-05T21:31:32.113Z,-64
2023-05-05T21:36:33.826Z,-63
2023-05-05T21:41:35.345Z,-63
2023-05-05T21:46:36.602Z,-63
2023-05-05T21:51:37.807Z,-62
2023-05-05T21:56:39.004Z,-62
2023-05-05T22:01:40.357Z,-65
2023-05-05T22:06:41.870Z,-63
2023-05-05T22:11:43.085Z,-64
2023-05-05T22:16:44.350Z,-63
2023-05-05T22:21:45.527Z,-63
2023-05-05T22:26:46.678Z,-63
2023-05-05T22:31:47.946Z,-63
2023-05-05T22:36:49.263Z,-63
2023-05-05T22:41:50.415Z,-63
2023-05-05T22:46:51.623Z,-63
2023-05-05T22:51:53.546Z,-62
2023-05-05T22:56:54.767Z,-63
2023-05-05T23:01:55.979Z,-63
2023-05-05T23:06:57.367Z,-62
2023-05-05T23:11:58.734Z,-62
2023-05-05T23:16:59.956Z,-63
2023-05-05T23:22:01.220Z,-62
2023-05-05T23:27:03.001Z,-63
2023-05-05T23:32:04.236Z,-63
2023-05-05T23:37:06.314Z,-63
2023-05-05T23:42:07.679Z,-63
2023-05-05T23:47:08.901Z,-63
2023-05-05T23:52:10.669Z,-62
2023-05-05T23:57:11.869Z,-62
